Terminal Aerodrome Forecast
Issued by NWS

Home | Current Version | Previous Version | Text Only | Print | Product List | Glossary On
Versions: 1 2 3 4 5 6 7 8 9 10 11 12 13 14 15 16 17 18 19 20 21 22 23 24 25 26 27 28 29 30 31 32 33 34 35 36 37 38 39 40 41
000
FTUS46 KOTX 251608 AAC
TAFCOE
TAF AMD
KCOE 251608Z 2516/2612 25003KT 1/4SM FZFG OVC002
     FM251800 35005KT 5SM BR BKN006
     FM251900 VRB04KT P6SM SCT015
     FM260300 22004KT P6SM VCSH OVC070
     FM261000 23004KT P6SM OVC012
      AMD LTD TO CLD AND VIS=

USA.gov is the U.S. government's official web portal to all federal, state and local government web resources and services.